^^
Saratoga-Weather Station Historical Data
Daily Summary for January 25, 2020 Units:  Both    English   Metric
Daily Weekly Monthly Yearly Custom
  High: Low: Average:
Temperature: 68.7 °F /  20.4 °C 44.8 °F /  7.1 °C 57.4 °F /  14.1 °C
Dew Point: 43.2 °F /  6.2 °C 37.9 °F /  3.3 °C 40.6 °F /  4.8 °C
Humidity: 82% 36% 56%
Wind Speed: 9mph /  14.5km/h - 1.6mph /  2.5km/h
Wind Gust: 12mph /  19.3km/h - -
Wind- - South
Pressure: 29.9 in /  1011.9 hPa 29.8 in /  1008.1 hPa -
Precipitation: 0 in /  0.0 mm    
Historical Graphs
 
 
Tabular Data for January 25, 2020
Time Temperature Dew Point Pressure Wind Wind Speed Wind Gust Humidity Rainfall Rate (Hourly) solar
00:00 56.8 °F /  13.8 °C 42.3 °F /  5.7 °C 29.9in /  1010.8hPa WSW 2mph /  3.2km/h 3mph /  4.8km/h 58% 0in /  0.0mm 0 W/m2
00:05 56.8 °F /  13.8 °C 42.3 °F /  5.7 °C 29.9in /  1010.8hPa WSW 2mph /  3.2km/h 4mph /  6.4km/h 58% 0in /  0.0mm 0 W/m2
00:10 57 °F /  13.9 °C 42.4 °F /  5.8 °C 29.9in /  1010.8hPa WSW 0.9mph /  1.4km/h 2mph /  3.2km/h 58% 0in /  0.0mm 0 W/m2
00:15 57 °F /  13.9 °C 42.4 °F /  5.8 °C 29.9in /  1010.8hPa WSW 2.9mph /  4.7km/h 4mph /  6.4km/h 58% 0in /  0.0mm 0 W/m2
00:20 57.2 °F /  14 °C 42.6 °F /  5.9 °C 29.9in /  1010.8hPa West 2.9mph /  4.7km/h 3mph /  4.8km/h 58% 0in /  0.0mm 0 W/m2
00:25 57.2 °F /  14 °C 42.6 °F /  5.9 °C 29.9in /  1010.8hPa WSW 0.9mph /  1.4km/h 4mph /  6.4km/h 58% 0in /  0.0mm 0 W/m2
00:30 57.2 °F /  14 °C 42.6 °F /  5.9 °C 29.9in /  1010.8hPa WSW 2mph /  3.2km/h 3mph /  4.8km/h 58% 0in /  0.0mm 0 W/m2
00:35 57 °F /  13.9 °C 42.4 °F /  5.8 °C 29.9in /  1010.8hPa West 0.9mph /  1.4km/h 3mph /  4.8km/h 58% 0in /  0.0mm 0 W/m2
00:40 56.8 °F /  13.8 °C 42.3 °F /  5.7 °C 29.9in /  1010.8hPa WSW 4mph /  6.4km/h 4mph /  6.4km/h 58% 0in /  0.0mm 0 W/m2
00:45 57 °F /  13.9 °C 42.4 °F /  5.8 °C 29.9in /  1010.8hPa West 2mph /  3.2km/h 4mph /  6.4km/h 58% 0in /  0.0mm 0 W/m2
00:50 57 °F /  13.9 °C 42.8 °F /  6 °C 29.9in /  1010.8hPa West 2.9mph /  4.7km/h 4mph /  6.4km/h 59% 0in /  0.0mm 0 W/m2
00:55 57 °F /  13.9 °C 42.8 °F /  6 °C 29.9in /  1010.8hPa West 2mph /  3.2km/h 4mph /  6.4km/h 59% 0in /  0.0mm 0 W/m2
01:00 56.8 °F /  13.8 °C 43.2 °F /  6.2 °C 29.9in /  1010.8hPa WSW 2mph /  3.2km/h 3mph /  4.8km/h 60% 0in /  0.0mm 0 W/m2
01:05 56.3 °F /  13.5 °C 43 °F /  6.1 °C 29.9in /  1010.8hPa West 4mph /  6.4km/h 4mph /  6.4km/h 61% 0in /  0.0mm 0 W/m2
01:11 55.8 °F /  13.2 °C 43 °F /  6.1 °C 29.9in /  1010.8hPa West 0.9mph /  1.4km/h 4mph /  6.4km/h 62% 0in /  0.0mm 0 W/m2
01:16 55.4 °F /  13 °C 43 °F /  6.1 °C 29.9in /  1010.8hPa WSW 4.9mph /  7.9km/h 6mph /  9.7km/h 63% 0in /  0.0mm 0 W/m2
01:21 55.4 °F /  13 °C 43 °F /  6.1 °C 29.9in /  1010.8hPa West 2.9mph /  4.7km/h 6mph /  9.7km/h 63% 0in /  0.0mm 0 W/m2
01:26 55.4 °F /  13 °C 42.6 °F /  5.9 °C 29.9in /  1010.8hPa West 2mph /  3.2km/h 4mph /  6.4km/h 62% 0in /  0.0mm 0 W/m2
01:31 55.2 °F /  12.9 °C 42.4 °F /  5.8 °C 29.9in /  1010.8hPa WSW 4mph /  6.4km/h 6mph /  9.7km/h 62% 0in /  0.0mm 0 W/m2
01:36 55.2 °F /  12.9 °C 42.4 °F /  5.8 °C 29.9in /  1010.8hPa WSW 2mph /  3.2km/h 6mph /  9.7km/h 62% 0in /  0.0mm 0 W/m2
01:41 55.2 °F /  12.9 °C 42.4 °F /  5.8 °C 29.9in /  1010.8hPa WSW 4mph /  6.4km/h 5mph /  8km/h 62% 0in /  0.0mm 0 W/m2
01:46 55.2 °F /  12.9 °C 42.1 °F /  5.6 °C 29.9in /  1010.8hPa West 6.9mph /  11.1km/h 7mph /  11.3km/h 61% 0in /  0.0mm 0 W/m2
01:51 55.4 °F /  13 °C 42.3 °F /  5.7 °C 29.9in /  1010.8hPa West 2mph /  3.2km/h 4mph /  6.4km/h 61% 0in /  0.0mm 0 W/m2
01:56 55.2 °F /  12.9 °C 41.5 °F /  5.3 °C 29.9in /  1010.8hPa WSW 2.9mph /  4.7km/h 6mph /  9.7km/h 60% 0in /  0.0mm 0 W/m2
02:01 55.2 °F /  12.9 °C 41.5 °F /  5.3 °C 29.9in /  1010.8hPa West 4mph /  6.4km/h 4mph /  6.4km/h 60% 0in /  0.0mm 0 W/m2
02:06 55.2 °F /  12.9 °C 41.5 °F /  5.3 °C 29.9in /  1010.8hPa West 2mph /  3.2km/h 3mph /  4.8km/h 60% 0in /  0.0mm 0 W/m2
02:11 55 °F /  12.8 °C 41.4 °F /  5.2 °C 29.9in /  1010.8hPa WSW 4mph /  6.4km/h 6mph /  9.7km/h 60% 0in /  0.0mm 0 W/m2
02:16 55 °F /  12.8 °C 41.4 °F /  5.2 °C 29.9in /  1010.8hPa WSW 0.9mph /  1.4km/h 3mph /  4.8km/h 60% 0in /  0.0mm 0 W/m2
02:21 55 °F /  12.8 °C 41.4 °F /  5.2 °C 29.9in /  1010.8hPa WSW 2.9mph /  4.7km/h 4mph /  6.4km/h 60% 0in /  0.0mm 0 W/m2
02:26 54.9 °F /  12.7 °C 41.7 °F /  5.4 °C 29.9in /  1010.8hPa WNW 2.9mph /  4.7km/h 5mph /  8km/h 61% 0in /  0.0mm 0 W/m2
02:31 54.7 °F /  12.6 °C 41.5 °F /  5.3 °C 29.9in /  1010.8hPa WSW 2.9mph /  4.7km/h 3mph /  4.8km/h 61% 0in /  0.0mm 0 W/m2
02:36 54.3 °F /  12.4 °C 41.2 °F /  5.1 °C 29.9in /  1010.8hPa West 2mph /  3.2km/h 3mph /  4.8km/h 61% 0in /  0.0mm 0 W/m2
02:41 54.3 °F /  12.4 °C 41.5 °F /  5.3 °C 29.9in /  1010.8hPa WSW 0.9mph /  1.4km/h 2mph /  3.2km/h 62% 0in /  0.0mm 0 W/m2
02:46 54 °F /  12.2 °C 41.2 °F /  5.1 °C 29.9in /  1010.8hPa WSW 0.9mph /  1.4km/h 1mph /  1.6km/h 62% 0in /  0.0mm 0 W/m2
02:51 53.8 °F /  12.1 °C 41.5 °F /  5.3 °C 29.9in /  1010.8hPa WSW 2mph /  3.2km/h 3mph /  4.8km/h 63% 0in /  0.0mm 0 W/m2
02:56 53.4 °F /  11.9 °C 41.2 °F /  5.1 °C 29.9in /  1010.8hPa WSW 0.9mph /  1.4km/h 2mph /  3.2km/h 63% 0in /  0.0mm 0 W/m2
03:01 53.1 °F /  11.7 °C 41.2 °F /  5.1 °C 29.9in /  1010.8hPa Calm   3mph /  4.8km/h 64% 0in /  0.0mm 0 W/m2
03:06 52.9 °F /  11.6 °C 41 °F /  5 °C 29.9in /  1010.8hPa Calm   1mph /  1.6km/h 64% 0in /  0.0mm 0 W/m2
03:11 52.5 °F /  11.4 °C 41.2 °F /  5.1 °C 29.9in /  1010.8hPa Calm   2mph /  3.2km/h 65% 0in /  0.0mm 0 W/m2
03:16 52.2 °F /  11.2 °C 40.8 °F /  4.9 °C 29.9in /  1010.8hPa Calm     65% 0in /  0.0mm 0 W/m2
03:21 51.8 °F /  11 °C 40.8 °F /  4.9 °C 29.9in /  1010.8hPa Calm   1mph /  1.6km/h 66% 0in /  0.0mm 0 W/m2
03:26 51.4 °F /  10.8 °C 40.5 °F /  4.7 °C 29.9in /  1010.8hPa WSW 0.9mph /  1.4km/h 4mph /  6.4km/h 66% 0in /  0.0mm 0 W/m2
03:31 51.4 °F /  10.8 °C 40.5 °F /  4.7 °C 29.9in /  1010.8hPa Calm   1mph /  1.6km/h 66% 0in /  0.0mm 0 W/m2
03:36 51.3 °F /  10.7 °C 40.6 °F /  4.8 °C 29.9in /  1010.8hPa Calm   1mph /  1.6km/h 67% 0in /  0.0mm 0 W/m2
03:41 51.1 °F /  10.6 °C 40.5 °F /  4.7 °C 29.9in /  1010.8hPa Calm   2mph /  3.2km/h 67% 0in /  0.0mm 0 W/m2
03:46 50.7 °F /  10.4 °C 40.5 °F /  4.7 °C 29.9in /  1010.8hPa North 0.9mph /  1.4km/h 1mph /  1.6km/h 68% 0in /  0.0mm 0 W/m2
03:51 50.5 °F /  10.3 °C 40.5 °F /  4.7 °C 29.9in /  1010.8hPa Calm   3mph /  4.8km/h 68% 0in /  0.0mm 0 W/m2
03:56 50.4 °F /  10.2 °C 40.3 °F /  4.6 °C 29.9in /  1010.8hPa Calm   1mph /  1.6km/h 68% 0in /  0.0mm 0 W/m2
04:01 50.4 °F /  10.2 °C 40.3 °F /  4.6 °C 29.9in /  1010.8hPa West 0.9mph /  1.4km/h 2mph /  3.2km/h 68% 0in /  0.0mm 0 W/m2
04:06 50.5 °F /  10.3 °C 40.5 °F /  4.7 °C 29.9in /  1010.8hPa Calm   1mph /  1.6km/h 68% 0in /  0.0mm 0 W/m2
04:11 50.5 °F /  10.3 °C 39.9 °F /  4.4 °C 29.9in /  1010.8hPa Calm   1mph /  1.6km/h 67% 0in /  0.0mm 0 W/m2
04:16 50.5 °F /  10.3 °C 39.9 °F /  4.4 °C 29.9in /  1010.8hPa West 0.9mph /  1.4km/h 1mph /  1.6km/h 67% 0in /  0.0mm 0 W/m2
04:21 50.5 °F /  10.3 °C 40.5 °F /  4.7 °C 29.9in /  1010.8hPa Calm   3mph /  4.8km/h 68% 0in /  0.0mm 0 W/m2
04:26 50.5 °F /  10.3 °C 40.5 °F /  4.7 °C 29.9in /  1010.8hPa Calm   1mph /  1.6km/h 68% 0in /  0.0mm 0 W/m2
04:31 50.4 °F /  10.2 °C 40.3 °F /  4.6 °C 29.9in /  1010.8hPa Calm   3mph /  4.8km/h 68% 0in /  0.0mm 0 W/m2
04:36 50.4 °F /  10.2 °C 40.3 °F /  4.6 °C 29.9in /  1010.8hPa Calm     68% 0in /  0.0mm 0 W/m2
04:41 50.2 °F /  10.1 °C 40.5 °F /  4.7 °C 29.9in /  1010.8hPa Calm   2mph /  3.2km/h 69% 0in /  0.0mm 0 W/m2
04:46 49.8 °F /  9.9 °C 40.1 °F /  4.5 °C 29.9in /  1010.8hPa WSW 0.9mph /  1.4km/h 2mph /  3.2km/h 69% 0in /  0.0mm 0 W/m2
04:51 49.8 °F /  9.9 °C 40.1 °F /  4.5 °C 29.9in /  1010.8hPa Calm   1mph /  1.6km/h 69% 0in /  0.0mm 0 W/m2
04:56 49.6 °F /  9.8 °C 40.3 °F /  4.6 °C 29.9in /  1010.8hPa WSW 0.9mph /  1.4km/h 2mph /  3.2km/h 70% 0in /  0.0mm 0 W/m2
05:01 49.3 °F /  9.6 °C 39.9 °F /  4.4 °C 29.9in /  1010.8hPa Calm     70% 0in /  0.0mm 0 W/m2
05:06 48.9 °F /  9.4 °C 39.9 °F /  4.4 °C 29.9in /  1010.8hPa Calm   2mph /  3.2km/h 71% 0in /  0.0mm 0 W/m2
05:11 48.7 °F /  9.3 °C 39.7 °F /  4.3 °C 29.9in /  1010.8hPa Calm   1mph /  1.6km/h 71% 0in /  0.0mm 0 W/m2
05:16 48.6 °F /  9.2 °C 39.9 °F /  4.4 °C 29.9in /  1010.8hPa WSW 0.9mph /  1.4km/h 1mph /  1.6km/h 72% 0in /  0.0mm 0 W/m2
05:21 48.4 °F /  9.1 °C 39.7 °F /  4.3 °C 29.9in /  1010.8hPa WSW 0.9mph /  1.4km/h 1mph /  1.6km/h 72% 0in /  0.0mm 0 W/m2
05:26 48.2 °F /  9 °C 39.6 °F /  4.2 °C 29.9in /  1010.8hPa WSW 0.9mph /  1.4km/h 1mph /  1.6km/h 72% 0in /  0.0mm 0 W/m2
05:31 47.8 °F /  8.8 °C 39.6 °F /  4.2 °C 29.9in /  1010.8hPa Calm     73% 0in /  0.0mm 0 W/m2
05:36 47.7 °F /  8.7 °C 39.4 °F /  4.1 °C 29.9in /  1010.8hPa Calm     73% 0in /  0.0mm 0 W/m2
05:41 47.5 °F /  8.6 °C 39.6 °F /  4.2 °C 29.9in /  1010.8hPa WSW 0.9mph /  1.4km/h 1mph /  1.6km/h 74% 0in /  0.0mm 0 W/m2
05:46 47.1 °F /  8.4 °C 39.6 °F /  4.2 °C 29.9in /  1010.8hPa Calm   1mph /  1.6km/h 75% 0in /  0.0mm 0 W/m2
05:51 46.9 °F /  8.3 °C 39.4 °F /  4.1 °C 29.9in /  1010.8hPa Calm   1mph /  1.6km/h 75% 0in /  0.0mm 0 W/m2
05:56 46.9 °F /  8.3 °C 39.4 °F /  4.1 °C 29.9in /  1010.8hPa Calm   1mph /  1.6km/h 75% 0in /  0.0mm 0 W/m2
06:01 46.8 °F /  8.2 °C 39.6 °F /  4.2 °C 29.9in /  1010.8hPa Calm     76% 0in /  0.0mm 0 W/m2
06:06 46.6 °F /  8.1 °C 39.7 °F /  4.3 °C 29.9in /  1010.8hPa Calm   1mph /  1.6km/h 77% 0in /  0.0mm 0 W/m2
06:11 46.2 °F /  7.9 °C 39.4 °F /  4.1 °C 29.9in /  1010.8hPa Calm     77% 0in /  0.0mm 0 W/m2
06:16 46 °F /  7.8 °C 39.2 °F /  4 °C 29.9in /  1010.8hPa Calm     77% 0in /  0.0mm 0 W/m2
06:21 45.7 °F /  7.6 °C 39.2 °F /  4 °C 29.9in /  1010.8hPa Calm     78% 0in /  0.0mm 0 W/m2
06:26 45.5 °F /  7.5 °C 39.4 °F /  4.1 °C 29.9in /  1010.8hPa Calm     79% 0in /  0.0mm 5 W/m2
06:31 45.3 °F /  7.4 °C 39.2 °F /  4 °C 29.9in /  1010.8hPa Calm     79% 0in /  0.0mm 9 W/m2
06:36 45.1 °F /  7.3 °C 39.4 °F /  4.1 °C 29.9in /  1010.8hPa Calm     80% 0in /  0.0mm 11 W/m2
06:41 45 °F /  7.2 °C 39.2 °F /  4 °C 29.9in /  1010.8hPa Calm     80% 0in /  0.0mm 14 W/m2
06:46 45 °F /  7.2 °C 39.2 °F /  4 °C 29.9in /  1010.8hPa Calm     80% 0in /  0.0mm 16 W/m2
06:51 44.8 °F /  7.1 °C 39.4 °F /  4.1 °C 29.9in /  1011.2hPa Calm     81% 0in /  0.0mm 19 W/m2
06:56 44.8 °F /  7.1 °C 39.4 °F /  4.1 °C 29.9in /  1011.2hPa Calm     81% 0in /  0.0mm 21 W/m2
07:01 44.8 °F /  7.1 °C 39.6 °F /  4.2 °C 29.9in /  1011.2hPa Calm     82% 0in /  0.0mm 25 W/m2
07:06 45 °F /  7.2 °C 39.7 °F /  4.3 °C 29.9in /  1011.2hPa Calm     82% 0in /  0.0mm 26 W/m2
07:11 45.1 °F /  7.3 °C 39.9 °F /  4.4 °C 29.9in /  1011.2hPa WSW 0.9mph /  1.4km/h 1mph /  1.6km/h 82% 0in /  0.0mm 30 W/m2
07:17 45.5 °F /  7.5 °C 40.1 °F /  4.5 °C 29.9in /  1011.2hPa Calm     81% 0in /  0.0mm 32 W/m2
07:22 45.9 °F /  7.7 °C 40.1 °F /  4.5 °C 29.9in /  1011.2hPa Calm     80% 0in /  0.0mm 33 W/m2
07:27 46.2 °F /  7.9 °C 40.1 °F /  4.5 °C 29.9in /  1011.5hPa Calm     79% 0in /  0.0mm 35 W/m2
07:32 46.6 °F /  8.1 °C 39.7 °F /  4.3 °C 29.9in /  1011.2hPa East 0.9mph /  1.4km/h 1mph /  1.6km/h 77% 0in /  0.0mm 37 W/m2
07:37 47.1 °F /  8.4 °C 40.3 °F /  4.6 °C 29.9in /  1011.5hPa Calm   2mph /  3.2km/h 77% 0in /  0.0mm 51 W/m2
07:42 47.5 °F /  8.6 °C 40.3 °F /  4.6 °C 29.9in /  1011.5hPa East 0.9mph /  1.4km/h 2mph /  3.2km/h 76% 0in /  0.0mm 53 W/m2
07:47 47.7 °F /  8.7 °C 40.5 °F /  4.7 °C 29.9in /  1011.5hPa Calm   3mph /  4.8km/h 76% 0in /  0.0mm 49 W/m2
07:52 47.8 °F /  8.8 °C 39.9 °F /  4.4 °C 29.9in /  1011.5hPa Calm   1mph /  1.6km/h 74% 0in /  0.0mm 46 W/m2
07:57 48.4 °F /  9.1 °C 40.1 °F /  4.5 °C 29.9in /  1011.5hPa Calm   1mph /  1.6km/h 73% 0in /  0.0mm 114 W/m2
08:02 48.9 °F /  9.4 °C 40.3 °F /  4.6 °C 29.9in /  1011.5hPa NE 2mph /  3.2km/h 4mph /  6.4km/h 72% 0in /  0.0mm 195 W/m2
08:07 49.6 °F /  9.8 °C 40.6 °F /  4.8 °C 29.9in /  1011.5hPa ESE 2mph /  3.2km/h 2mph /  3.2km/h 71% 0in /  0.0mm 209 W/m2
08:12 50.2 °F /  10.1 °C 40.8 °F /  4.9 °C 29.9in /  1011.5hPa Calm   3mph /  4.8km/h 70% 0in /  0.0mm 225 W/m2
08:17 50.5 °F /  10.3 °C 39.9 °F /  4.4 °C 29.9in /  1011.5hPa NNW 0.9mph /  1.4km/h 3mph /  4.8km/h 67% 0in /  0.0mm 239 W/m2
08:22 51.1 °F /  10.6 °C 40.5 °F /  4.7 °C 29.9in /  1011.5hPa NW 0.9mph /  1.4km/h 2mph /  3.2km/h 67% 0in /  0.0mm 255 W/m2
08:27 51.3 °F /  10.7 °C 40.3 °F /  4.6 °C 29.9in /  1011.5hPa NE 0.9mph /  1.4km/h 2mph /  3.2km/h 66% 0in /  0.0mm 265 W/m2
08:32 51.4 °F /  10.8 °C 40.5 °F /  4.7 °C 29.9in /  1011.5hPa East 2mph /  3.2km/h 2mph /  3.2km/h 66% 0in /  0.0mm 283 W/m2
08:37 51.6 °F /  10.9 °C 40.6 °F /  4.8 °C 29.9in /  1011.5hPa Calm   2mph /  3.2km/h 66% 0in /  0.0mm 295 W/m2
08:42 52 °F /  11.1 °C 40.6 °F /  4.8 °C 29.9in /  1011.5hPa West 0.9mph /  1.4km/h 4mph /  6.4km/h 65% 0in /  0.0mm 313 W/m2
08:47 52 °F /  11.1 °C 40.1 °F /  4.5 °C 29.9in /  1011.5hPa West 4mph /  6.4km/h 4mph /  6.4km/h 64% 0in /  0.0mm 327 W/m2
08:52 52 °F /  11.1 °C 40.1 °F /  4.5 °C 29.9in /  1011.5hPa NE 2mph /  3.2km/h 4mph /  6.4km/h 64% 0in /  0.0mm 339 W/m2
08:57 52 °F /  11.1 °C 40.6 °F /  4.8 °C 29.9in /  1011.5hPa West 2mph /  3.2km/h 3mph /  4.8km/h 65% 0in /  0.0mm 352 W/m2
09:02 52.3 °F /  11.3 °C 41 °F /  5 °C 29.9in /  1011.5hPa North 2.9mph /  4.7km/h 4mph /  6.4km/h 65% 0in /  0.0mm 369 W/m2
09:07 52.5 °F /  11.4 °C 41.5 °F /  5.3 °C 29.9in /  1011.5hPa ENE 0.9mph /  1.4km/h 2mph /  3.2km/h 66% 0in /  0.0mm 383 W/m2
09:12 52.9 °F /  11.6 °C 41.4 °F /  5.2 °C 29.9in /  1011.5hPa NW 2mph /  3.2km/h 4mph /  6.4km/h 65% 0in /  0.0mm 396 W/m2
09:17 52.9 °F /  11.6 °C 41.4 °F /  5.2 °C 29.9in /  1011.5hPa NNW 2mph /  3.2km/h 3mph /  4.8km/h 65% 0in /  0.0mm 408 W/m2
09:22 53.4 °F /  11.9 °C 41.9 °F /  5.5 °C 29.9in /  1011.5hPa ENE 2mph /  3.2km/h 3mph /  4.8km/h 65% 0in /  0.0mm 425 W/m2
09:27 54 °F /  12.2 °C 42.1 °F /  5.6 °C 29.9in /  1011.5hPa SSE 0.9mph /  1.4km/h 1mph /  1.6km/h 64% 0in /  0.0mm 434 W/m2
09:32 54.3 °F /  12.4 °C 41.5 °F /  5.3 °C 29.9in /  1011.5hPa Calm   2mph /  3.2km/h 62% 0in /  0.0mm 452 W/m2
09:37 54.9 °F /  12.7 °C 41.7 °F /  5.4 °C 29.9in /  1011.5hPa NNW 2.9mph /  4.7km/h 3mph /  4.8km/h 61% 0in /  0.0mm 464 W/m2
09:42 55.4 °F /  13 °C 41.4 °F /  5.2 °C 29.9in /  1011.5hPa ESE 6.9mph /  11.1km/h 8mph /  12.9km/h 59% 0in /  0.0mm 478 W/m2
09:47 55.2 °F /  12.9 °C 40.6 °F /  4.8 °C 29.9in /  1011.5hPa ESE 2mph /  3.2km/h 4mph /  6.4km/h 58% 0in /  0.0mm 489 W/m2
09:53 55.4 °F /  13 °C 40.5 °F /  4.7 °C 29.9in /  1011.5hPa ENE 4mph /  6.4km/h 8mph /  12.9km/h 57% 0in /  0.0mm 487 W/m2
09:58 55.8 °F /  13.2 °C 40.8 °F /  4.9 °C 29.9in /  1011.5hPa Calm   6mph /  9.7km/h 57% 0in /  0.0mm 49 W/m2
10:03 56.1 °F /  13.4 °C 40.6 °F /  4.8 °C 29.9in /  1011.5hPa ESE 2.9mph /  4.7km/h 10mph /  16.1km/h 56% 0in /  0.0mm 531 W/m2
10:08 56.1 °F /  13.4 °C 40.1 °F /  4.5 °C 29.9in /  1011.5hPa ENE 2mph /  3.2km/h 8mph /  12.9km/h 55% 0in /  0.0mm 540 W/m2
10:13 56.1 °F /  13.4 °C 40.1 °F /  4.5 °C 29.9in /  1011.5hPa WNW 0.9mph /  1.4km/h 2mph /  3.2km/h 55% 0in /  0.0mm 555 W/m2
10:18 56.5 °F /  13.6 °C 41 °F /  5 °C 29.9in /  1011.5hPa North 2mph /  3.2km/h 4mph /  6.4km/h 56% 0in /  0.0mm 566 W/m2
10:23 56.8 °F /  13.8 °C 41.4 °F /  5.2 °C 29.9in /  1011.5hPa NE 0.9mph /  1.4km/h 6mph /  9.7km/h 56% 0in /  0.0mm 575 W/m2
10:29 57.4 °F /  14.1 °C 40.8 °F /  4.9 °C 29.9in /  1011.5hPa NE 8.9mph /  14.3km/h 9mph /  14.5km/h 54% 0in /  0.0mm 589 W/m2
10:34 57.6 °F /  14.2 °C 41.5 °F /  5.3 °C 29.9in /  1011.9hPa NE 2.9mph /  4.7km/h 3mph /  4.8km/h 55% 0in /  0.0mm 599 W/m2
10:39 57.7 °F /  14.3 °C 41.2 °F /  5.1 °C 29.9in /  1011.9hPa East 0.9mph /  1.4km/h 3mph /  4.8km/h 54% 0in /  0.0mm 612 W/m2
10:44 57.9 °F /  14.4 °C 40.8 °F /  4.9 °C 29.9in /  1011.9hPa East 4mph /  6.4km/h 8mph /  12.9km/h 53% 0in /  0.0mm 619 W/m2
10:49 57.7 °F /  14.3 °C 40.6 °F /  4.8 °C 29.9in /  1011.9hPa ENE 2.9mph /  4.7km/h 7mph /  11.3km/h 53% 0in /  0.0mm 629 W/m2
10:54 57.7 °F /  14.3 °C 40.6 °F /  4.8 °C 29.9in /  1011.9hPa SSE 2.9mph /  4.7km/h 6mph /  9.7km/h 53% 0in /  0.0mm 638 W/m2
10:59 58.3 °F /  14.6 °C 41.7 °F /  5.4 °C 29.9in /  1011.9hPa ENE 4mph /  6.4km/h 4mph /  6.4km/h 54% 0in /  0.0mm 643 W/m2
11:04 58.6 °F /  14.8 °C 41 °F /  5 °C 29.9in /  1011.9hPa ESE 0.9mph /  1.4km/h 4mph /  6.4km/h 52% 0in /  0.0mm 649 W/m2
11:09 59.2 °F /  15.1 °C 41.5 °F /  5.3 °C 29.9in /  1011.9hPa ENE 4mph /  6.4km/h 6mph /  9.7km/h 52% 0in /  0.0mm 666 W/m2
11:14 59.4 °F /  15.2 °C 41.7 °F /  5.4 °C 29.9in /  1011.5hPa East 6.9mph /  11.1km/h 10mph /  16.1km/h 52% 0in /  0.0mm 673 W/m2
11:19 59.4 °F /  15.2 °C 42.8 °F /  6 °C 29.9in /  1011.9hPa East 8.1mph /  13km/h 8mph /  12.9km/h 54% 0in /  0.0mm 680 W/m2
11:24 59.7 °F /  15.4 °C 41.5 °F /  5.3 °C 29.9in /  1011.5hPa NNE 2.9mph /  4.7km/h 9mph /  14.5km/h 51% 0in /  0.0mm 687 W/m2
11:29 59.5 °F /  15.3 °C 41.9 °F /  5.5 °C 29.9in /  1011.5hPa WNW 2.9mph /  4.7km/h 3mph /  4.8km/h 52% 0in /  0.0mm 691 W/m2
11:34 59.5 °F /  15.3 °C 41.4 °F /  5.2 °C 29.9in /  1011.9hPa ESE 4mph /  6.4km/h 12mph /  19.3km/h 51% 0in /  0.0mm 705 W/m2
11:39 59.2 °F /  15.1 °C 41.5 °F /  5.3 °C 29.9in /  1011.9hPa NE 0.9mph /  1.4km/h 5mph /  8km/h 52% 0in /  0.0mm 707 W/m2
11:44 59.4 °F /  15.2 °C 40.6 °F /  4.8 °C 29.9in /  1011.5hPa East 4mph /  6.4km/h 9mph /  14.5km/h 50% 0in /  0.0mm 712 W/m2
11:49 59.7 °F /  15.4 °C 41.5 °F /  5.3 °C 29.9in /  1011.5hPa NE 2.9mph /  4.7km/h 5mph /  8km/h 51% 0in /  0.0mm 719 W/m2
11:54 60.1 °F /  15.6 °C 42.4 °F /  5.8 °C 29.9in /  1011.5hPa NW 4mph /  6.4km/h 6mph /  9.7km/h 52% 0in /  0.0mm 731 W/m2
11:59 60.4 °F /  15.8 °C 41.7 °F /  5.4 °C 29.9in /  1011.5hPa Calm   2mph /  3.2km/h 50% 0in /  0.0mm 731 W/m2
12:04 60.4 °F /  15.8 °C 41.2 °F /  5.1 °C 29.9in /  1011.5hPa NW 0.9mph /  1.4km/h 3mph /  4.8km/h 49% 0in /  0.0mm 735 W/m2
12:09 60.6 °F /  15.9 °C 41.9 °F /  5.5 °C 29.9in /  1011.5hPa East 2.9mph /  4.7km/h 9mph /  14.5km/h 50% 0in /  0.0mm 744 W/m2
12:14 60.3 °F /  15.7 °C 41.5 °F /  5.3 °C 29.9in /  1011.5hPa WNW 0.9mph /  1.4km/h 3mph /  4.8km/h 50% 0in /  0.0mm 738 W/m2
12:19 60.1 °F /  15.6 °C 41.4 °F /  5.2 °C 29.9in /  1011.2hPa NE 0.9mph /  1.4km/h 7mph /  11.3km/h 50% 0in /  0.0mm 747 W/m2
12:24 60.3 °F /  15.7 °C 42.6 °F /  5.9 °C 29.9in /  1011.2hPa East 9mph /  14.5km/h 9mph /  14.5km/h 52% 0in /  0.0mm 751 W/m2
12:29 60.6 °F /  15.9 °C 41.9 °F /  5.5 °C 29.9in /  1011.2hPa NW 0.9mph /  1.4km/h 2mph /  3.2km/h 50% 0in /  0.0mm 765 W/m2
12:34 61.2 °F /  16.2 °C 42.4 °F /  5.8 °C 29.9in /  1011.2hPa NNW 9mph /  14.5km/h 9mph /  14.5km/h 50% 0in /  0.0mm 763 W/m2
12:39 61.3 °F /  16.3 °C 42.1 °F /  5.6 °C 29.9in /  1010.8hPa SW 0.9mph /  1.4km/h 2mph /  3.2km/h 49% 0in /  0.0mm 765 W/m2
12:44 61.5 °F /  16.4 °C 42.3 °F /  5.7 °C 29.9in /  1010.8hPa North 0.9mph /  1.4km/h 8mph /  12.9km/h 49% 0in /  0.0mm 768 W/m2
12:49 61.7 °F /  16.5 °C 41.9 °F /  5.5 °C 29.9in /  1010.8hPa NNW 0.9mph /  1.4km/h 4mph /  6.4km/h 48% 0in /  0.0mm 768 W/m2
12:54 61.9 °F /  16.6 °C 40.8 °F /  4.9 °C 29.9in /  1010.8hPa West 0.9mph /  1.4km/h 8mph /  12.9km/h 46% 0in /  0.0mm 779 W/m2
12:59 62.2 °F /  16.8 °C 40.6 °F /  4.8 °C 29.9in /  1010.8hPa NW 4.9mph /  7.9km/h 5mph /  8km/h 45% 0in /  0.0mm 777 W/m2
13:04 62.4 °F /  16.9 °C 39.6 °F /  4.2 °C 29.9in /  1010.8hPa NE 4mph /  6.4km/h 8mph /  12.9km/h 43% 0in /  0.0mm 788 W/m2
13:09 62.8 °F /  17.1 °C 40.5 °F /  4.7 °C 29.9in /  1010.8hPa WNW 6.9mph /  11.1km/h 7mph /  11.3km/h 44% 0in /  0.0mm 784 W/m2
13:14 62.6 °F /  17 °C 39.7 °F /  4.3 °C 29.9in /  1010.8hPa Calm   4mph /  6.4km/h 43% 0in /  0.0mm 780 W/m2
13:19 62.8 °F /  17.1 °C 39.9 °F /  4.4 °C 29.9in /  1010.8hPa NNW 0.9mph /  1.4km/h 5mph /  8km/h 43% 0in /  0.0mm 777 W/m2
13:24 62.8 °F /  17.1 °C 39.9 °F /  4.4 °C 29.9in /  1010.8hPa East 2.9mph /  4.7km/h 8mph /  12.9km/h 43% 0in /  0.0mm 786 W/m2
13:29 63.1 °F /  17.3 °C 39 °F /  3.9 °C 29.9in /  1010.8hPa ESE 0.9mph /  1.4km/h 3mph /  4.8km/h 41% 0in /  0.0mm 788 W/m2
13:34 63.3 °F /  17.4 °C 38.7 °F /  3.7 °C 29.9in /  1010.8hPa Calm   8mph /  12.9km/h 40% 0in /  0.0mm 793 W/m2
13:39 63.3 °F /  17.4 °C 39.9 °F /  4.4 °C 29.8in /  1010.5hPa Calm   4mph /  6.4km/h 42% 0in /  0.0mm 782 W/m2
13:44 63.9 °F /  17.7 °C 41 °F /  5 °C 29.8in /  1010.5hPa ENE 2.9mph /  4.7km/h 9mph /  14.5km/h 43% 0in /  0.0mm 784 W/m2
13:49 63.9 °F /  17.7 °C 39.7 °F /  4.3 °C 29.8in /  1010.5hPa ENE 2mph /  3.2km/h 3mph /  4.8km/h 41% 0in /  0.0mm 786 W/m2
13:54 63.9 °F /  17.7 °C 40.3 °F /  4.6 °C 29.8in /  1010.5hPa ENE 2mph /  3.2km/h 8mph /  12.9km/h 42% 0in /  0.0mm 782 W/m2
13:59 64.2 °F /  17.9 °C 40.6 °F /  4.8 °C 29.8in /  1010.5hPa ESE 2mph /  3.2km/h 9mph /  14.5km/h 42% 0in /  0.0mm 784 W/m2
14:04 64.6 °F /  18.1 °C 39.7 °F /  4.3 °C 29.8in /  1010.5hPa NNE 2.9mph /  4.7km/h 3mph /  4.8km/h 40% 0in /  0.0mm 779 W/m2
14:09 64.6 °F /  18.1 °C 39 °F /  3.9 °C 29.8in /  1010.2hPa WNW 4mph /  6.4km/h 9mph /  14.5km/h 39% 0in /  0.0mm 780 W/m2
14:14 64.8 °F /  18.2 °C 38.5 °F /  3.6 °C 29.8in /  1010.2hPa North 0.9mph /  1.4km/h 4mph /  6.4km/h 38% 0in /  0.0mm 777 W/m2
14:19 64.8 °F /  18.2 °C 39.9 °F /  4.4 °C 29.8in /  1010.2hPa NW 0.9mph /  1.4km/h 3mph /  4.8km/h 40% 0in /  0.0mm 772 W/m2
14:24 64.9 °F /  18.3 °C 38.7 °F /  3.7 °C 29.8in /  1010.2hPa East 9mph /  14.5km/h 9mph /  14.5km/h 38% 0in /  0.0mm 770 W/m2
14:29 64.6 °F /  18.1 °C 39.7 °F /  4.3 °C 29.8in /  1010.2hPa NE 4mph /  6.4km/h 4mph /  6.4km/h 40% 0in /  0.0mm 766 W/m2
14:35 64.8 °F /  18.2 °C 39.9 °F /  4.4 °C 29.8in /  1010.2hPa West 2mph /  3.2km/h 2mph /  3.2km/h 40% 0in /  0.0mm 761 W/m2
14:40 64.8 °F /  18.2 °C 39.2 °F /  4 °C 29.8in /  1010.2hPa SE 2.9mph /  4.7km/h 4mph /  6.4km/h 39% 0in /  0.0mm 756 W/m2
14:45 64.9 °F /  18.3 °C 39.4 °F /  4.1 °C 29.8in /  1009.8hPa North 2mph /  3.2km/h 5mph /  8km/h 39% 0in /  0.0mm 745 W/m2
14:50 65.7 °F /  18.7 °C 40.1 °F /  4.5 °C 29.8in /  1009.8hPa East 2.9mph /  4.7km/h 6mph /  9.7km/h 39% 0in /  0.0mm 744 W/m2
14:55 65.8 °F /  18.8 °C 38.1 °F /  3.4 °C 29.8in /  1009.8hPa SE 2.9mph /  4.7km/h 7mph /  11.3km/h 36% 0in /  0.0mm 740 W/m2
15:00 65.7 °F /  18.7 °C 39.4 °F /  4.1 °C 29.8in /  1009.8hPa WNW 2mph /  3.2km/h 2mph /  3.2km/h 38% 0in /  0.0mm 737 W/m2
15:05 65.7 °F /  18.7 °C 37.9 °F /  3.3 °C 29.8in /  1009.8hPa East 2.9mph /  4.7km/h 6mph /  9.7km/h 36% 0in /  0.0mm 731 W/m2
15:10 65.5 °F /  18.6 °C 39.2 °F /  4 °C 29.8in /  1009.8hPa Calm   2mph /  3.2km/h 38% 0in /  0.0mm 719 W/m2
15:15 65.8 °F /  18.8 °C 39.6 °F /  4.2 °C 29.8in /  1009.8hPa Calm   5mph /  8km/h 38% 0in /  0.0mm 714 W/m2
15:20 66.2 °F /  19 °C 39.9 °F /  4.4 °C 29.8in /  1009.8hPa SSW 2mph /  3.2km/h 9mph /  14.5km/h 38% 0in /  0.0mm 710 W/m2
15:25 66 °F /  18.9 °C 39 °F /  3.9 °C 29.8in /  1009.5hPa WNW 2mph /  3.2km/h 3mph /  4.8km/h 37% 0in /  0.0mm 700 W/m2
15:30 65.7 °F /  18.7 °C 38.7 °F /  3.7 °C 29.8in /  1009.5hPa NNW 4mph /  6.4km/h 6mph /  9.7km/h 37% 0in /  0.0mm 694 W/m2
15:35 66 °F /  18.9 °C 39 °F /  3.9 °C 29.8in /  1009.5hPa NW 2mph /  3.2km/h 8mph /  12.9km/h 37% 0in /  0.0mm 686 W/m2
15:40 66.2 °F /  19 °C 41.2 °F /  5.1 °C 29.8in /  1009.5hPa East 6mph /  9.7km/h 6mph /  9.7km/h 40% 0in /  0.0mm 679 W/m2
15:45 66.6 °F /  19.2 °C 41.5 °F /  5.3 °C 29.8in /  1009.5hPa WNW 2.9mph /  4.7km/h 3mph /  4.8km/h 40% 0in /  0.0mm 671 W/m2
15:50 66.9 °F /  19.4 °C 41.2 °F /  5.1 °C 29.8in /  1009.1hPa WSW 4mph /  6.4km/h 5mph /  8km/h 39% 0in /  0.0mm 657 W/m2
15:55 66.9 °F /  19.4 °C 41.2 °F /  5.1 °C 29.8in /  1009.1hPa NNW 2.9mph /  4.7km/h 6mph /  9.7km/h 39% 0in /  0.0mm 650 W/m2
16:00 66.9 °F /  19.4 °C 40.5 °F /  4.7 °C 29.8in /  1009.1hPa NE 2.9mph /  4.7km/h 5mph /  8km/h 38% 0in /  0.0mm 640 W/m2
16:05 67.1 °F /  19.5 °C 41.9 °F /  5.5 °C 29.8in /  1009.1hPa Calm   6mph /  9.7km/h 40% 0in /  0.0mm 631 W/m2
16:10 67.3 °F /  19.6 °C 42.1 °F /  5.6 °C 29.8in /  1009.1hPa ESE 2.9mph /  4.7km/h 3mph /  4.8km/h 40% 0in /  0.0mm 626 W/m2
16:15 67.3 °F /  19.6 °C 40.8 °F /  4.9 °C 29.8in /  1009.1hPa SE 2mph /  3.2km/h 5mph /  8km/h 38% 0in /  0.0mm 613 W/m2
16:20 67.3 °F /  19.6 °C 40.8 °F /  4.9 °C 29.8in /  1009.1hPa NW 2.9mph /  4.7km/h 8mph /  12.9km/h 38% 0in /  0.0mm 603 W/m2
16:25 67.5 °F /  19.7 °C 41 °F /  5 °C 29.8in /  1009.1hPa NE 0.9mph /  1.4km/h 4mph /  6.4km/h 38% 0in /  0.0mm 591 W/m2
16:30 67.8 °F /  19.9 °C 41.4 °F /  5.2 °C 29.8in /  1009.1hPa WNW 0.9mph /  1.4km/h 3mph /  4.8km/h 38% 0in /  0.0mm 580 W/m2
16:35 68 °F /  20 °C 40.8 °F /  4.9 °C 29.8in /  1008.8hPa NNW 2.9mph /  4.7km/h 4mph /  6.4km/h 37% 0in /  0.0mm 575 W/m2
16:40 68.2 °F /  20.1 °C 41.5 °F /  5.3 °C 29.8in /  1008.8hPa East 2mph /  3.2km/h 4mph /  6.4km/h 38% 0in /  0.0mm 564 W/m2
16:46 68.2 °F /  20.1 °C 41 °F /  5 °C 29.8in /  1008.8hPa NW 0.9mph /  1.4km/h 3mph /  4.8km/h 37% 0in /  0.0mm 545 W/m2
16:51 68 °F /  20 °C 40.8 °F /  4.9 °C 29.8in /  1008.8hPa West 0.9mph /  1.4km/h 1mph /  1.6km/h 37% 0in /  0.0mm 533 W/m2
16:56 68 °F /  20 °C 41.4 °F /  5.2 °C 29.8in /  1008.8hPa NNW 0.9mph /  1.4km/h 2mph /  3.2km/h 38% 0in /  0.0mm 524 W/m2
17:01 68.2 °F /  20.1 °C 41.5 °F /  5.3 °C 29.8in /  1008.8hPa NE 4.9mph /  7.9km/h 5mph /  8km/h 38% 0in /  0.0mm 512 W/m2
17:06 68.2 °F /  20.1 °C 40.3 °F /  4.6 °C 29.8in /  1008.8hPa Calm   4mph /  6.4km/h 36% 0in /  0.0mm 501 W/m2
17:11 68.2 °F /  20.1 °C 41.5 °F /  5.3 °C 29.8in /  1008.8hPa WNW 0.9mph /  1.4km/h 4mph /  6.4km/h 38% 0in /  0.0mm 489 W/m2
17:16 68.2 °F /  20.1 °C 41 °F /  5 °C 29.8in /  1008.5hPa NNW 4mph /  6.4km/h 5mph /  8km/h 37% 0in /  0.0mm 478 W/m2
17:21 68.5 °F /  20.3 °C 40.5 °F /  4.7 °C 29.8in /  1008.5hPa SSE 2mph /  3.2km/h 4mph /  6.4km/h 36% 0in /  0.0mm 464 W/m2
17:26 68.4 °F /  20.2 °C 41 °F /  5 °C 29.8in /  1008.5hPa East 2.9mph /  4.7km/h 6mph /  9.7km/h 37% 0in /  0.0mm 450 W/m2
17:31 68.4 °F /  20.2 °C 41.7 °F /  5.4 °C 29.8in /  1008.5hPa WNW 2.9mph /  4.7km/h 4mph /  6.4km/h 38% 0in /  0.0mm 441 W/m2
17:36 68.4 °F /  20.2 °C 41 °F /  5 °C 29.8in /  1008.5hPa Calm   2mph /  3.2km/h 37% 0in /  0.0mm 432 W/m2
17:42 68.5 °F /  20.3 °C 41.9 °F /  5.5 °C 29.8in /  1008.5hPa Calm   9mph /  14.5km/h 38% 0in /  0.0mm 415 W/m2
17:47 68.7 °F /  20.4 °C 41.4 °F /  5.2 °C 29.8in /  1008.5hPa East 2mph /  3.2km/h 4mph /  6.4km/h 37% 0in /  0.0mm 401 W/m2
17:52 68.7 °F /  20.4 °C 41.4 °F /  5.2 °C 29.8in /  1008.5hPa North 2.9mph /  4.7km/h 6mph /  9.7km/h 37% 0in /  0.0mm 388 W/m2
17:57 68.4 °F /  20.2 °C 41 °F /  5 °C 29.8in /  1008.5hPa East 2.9mph /  4.7km/h 3mph /  4.8km/h 37% 0in /  0.0mm 374 W/m2
18:02 68.4 °F /  20.2 °C 41 °F /  5 °C 29.8in /  1008.5hPa Calm   2mph /  3.2km/h 37% 0in /  0.0mm 364 W/m2
18:07 68.5 °F /  20.3 °C 41.2 °F /  5.1 °C 29.8in /  1008.5hPa SSE 0.9mph /  1.4km/h 9mph /  14.5km/h 37% 0in /  0.0mm 348 W/m2
18:12 68.5 °F /  20.3 °C 41.9 °F /  5.5 °C 29.8in /  1008.5hPa NNE 2.9mph /  4.7km/h 6mph /  9.7km/h 38% 0in /  0.0mm 338 W/m2
18:17 68.4 °F /  20.2 °C 41.7 °F /  5.4 °C 29.8in /  1008.1hPa ENE 4mph /  6.4km/h 9mph /  14.5km/h 38% 0in /  0.0mm 322 W/m2
18:22 68.2 °F /  20.1 °C 41.5 °F /  5.3 °C 29.8in /  1008.1hPa NNW 2mph /  3.2km/h 3mph /  4.8km/h 38% 0in /  0.0mm 309 W/m2
18:27 68.2 °F /  20.1 °C 42.3 °F /  5.7 °C 29.8in /  1008.1hPa SE 2mph /  3.2km/h 5mph /  8km/h 39% 0in /  0.0mm 294 W/m2
18:32 68.2 °F /  20.1 °C 41 °F /  5 °C 29.8in /  1008.1hPa NE 2mph /  3.2km/h 3mph /  4.8km/h 37% 0in /  0.0mm 283 W/m2
18:37 68.5 °F /  20.3 °C 41.2 °F /  5.1 °C 29.8in /  1008.1hPa East 2.9mph /  4.7km/h 4mph /  6.4km/h 37% 0in /  0.0mm 269 W/m2
18:42 68.4 °F /  20.2 °C 41 °F /  5 °C 29.8in /  1008.1hPa SSE 0.9mph /  1.4km/h 5mph /  8km/h 37% 0in /  0.0mm 258 W/m2
18:47 67.8 °F /  19.9 °C 40.6 °F /  4.8 °C 29.8in /  1008.1hPa SSE 0.9mph /  1.4km/h 7mph /  11.3km/h 37% 0in /  0.0mm 237 W/m2
18:52 67.3 °F /  19.6 °C 40.8 °F /  4.9 °C 29.8in /  1008.1hPa SW 0.9mph /  1.4km/h 2mph /  3.2km/h 38% 0in /  0.0mm 227 W/m2
18:57 67.5 °F /  19.7 °C 41 °F /  5 °C 29.8in /  1008.1hPa SW 2mph /  3.2km/h 2mph /  3.2km/h 38% 0in /  0.0mm 211 W/m2
19:02 67.5 °F /  19.7 °C 40.3 °F /  4.6 °C 29.8in /  1008.1hPa NNW 2.9mph /  4.7km/h 5mph /  8km/h 37% 0in /  0.0mm 199 W/m2
19:08 67.3 °F /  19.6 °C 40.1 °F /  4.5 °C 29.8in /  1008.1hPa ENE 0.9mph /  1.4km/h 5mph /  8km/h 37% 0in /  0.0mm 179 W/m2
19:13 67.1 °F /  19.5 °C 40.6 °F /  4.8 °C 29.8in /  1008.1hPa South 0.9mph /  1.4km/h 2mph /  3.2km/h 38% 0in /  0.0mm 162 W/m2
19:18 67.3 °F /  19.6 °C 40.1 °F /  4.5 °C 29.8in /  1008.1hPa WNW 0.9mph /  1.4km/h 2mph /  3.2km/h 37% 0in /  0.0mm 146 W/m2
19:23 67.3 °F /  19.6 °C 40.1 °F /  4.5 °C 29.8in /  1008.1hPa Calm   1mph /  1.6km/h 37% 0in /  0.0mm 132 W/m2
19:28 67.3 °F /  19.6 °C 40.8 °F /  4.9 °C 29.8in /  1008.1hPa Calm   2mph /  3.2km/h 38% 0in /  0.0mm 118 W/m2
19:33 67.3 °F /  19.6 °C 40.1 °F /  4.5 °C 29.8in /  1008.1hPa North 2mph /  3.2km/h 4mph /  6.4km/h 37% 0in /  0.0mm 104 W/m2
19:38 67.1 °F /  19.5 °C 39.2 °F /  4 °C 29.8in /  1008.1hPa North 0.9mph /  1.4km/h 3mph /  4.8km/h 36% 0in /  0.0mm 90 W/m2
19:43 66.9 °F /  19.4 °C 39 °F /  3.9 °C 29.8in /  1008.1hPa NW 2.9mph /  4.7km/h 3mph /  4.8km/h 36% 0in /  0.0mm 79 W/m2
19:48 66.6 °F /  19.2 °C 39.6 °F /  4.2 °C 29.8in /  1008.1hPa West 2mph /  3.2km/h 6mph /  9.7km/h 37% 0in /  0.0mm 65 W/m2
19:53 66.4 °F /  19.1 °C 39.4 °F /  4.1 °C 29.8in /  1008.1hPa NE 2mph /  3.2km/h 4mph /  6.4km/h 37% 0in /  0.0mm 54 W/m2
19:58 65.8 °F /  18.8 °C 38.8 °F /  3.8 °C 29.8in /  1008.1hPa North 0.9mph /  1.4km/h 6mph /  9.7km/h 37% 0in /  0.0mm 46 W/m2
20:03 65.7 °F /  18.7 °C 39.4 °F /  4.1 °C 29.8in /  1008.5hPa NNW 0.9mph /  1.4km/h 3mph /  4.8km/h 38% 0in /  0.0mm 32 W/m2
20:08 65.1 °F /  18.4 °C 39.6 °F /  4.2 °C 29.8in /  1008.1hPa East 2mph /  3.2km/h 2mph /  3.2km/h 39% 0in /  0.0mm 25 W/m2
20:13 64.2 °F /  17.9 °C 40.6 °F /  4.8 °C 29.8in /  1008.5hPa Calm   2mph /  3.2km/h 42% 0in /  0.0mm 21 W/m2
20:18 63.5 °F /  17.5 °C 39.9 °F /  4.4 °C 29.8in /  1008.5hPa ENE 0.9mph /  1.4km/h 4mph /  6.4km/h 42% 0in /  0.0mm 18 W/m2
20:23 62.8 °F /  17.1 °C 39.4 °F /  4.1 °C 29.8in /  1008.5hPa SE 2.9mph /  4.7km/h 3mph /  4.8km/h 42% 0in /  0.0mm 14 W/m2
20:28 62.2 °F /  16.8 °C 40.6 °F /  4.8 °C 29.8in /  1008.5hPa Calm   1mph /  1.6km/h 45% 0in /  0.0mm 12 W/m2
20:33 61.5 °F /  16.4 °C 41.2 °F /  5.1 °C 29.8in /  1008.5hPa SE 0.9mph /  1.4km/h 1mph /  1.6km/h 47% 0in /  0.0mm 11 W/m2
20:38 61 °F /  16.1 °C 41.2 °F /  5.1 °C 29.8in /  1008.5hPa SE 0.9mph /  1.4km/h 1mph /  1.6km/h 48% 0in /  0.0mm 7 W/m2
20:43 60.1 °F /  15.6 °C 40.8 °F /  4.9 °C 29.8in /  1008.5hPa SE 0.9mph /  1.4km/h 2mph /  3.2km/h 49% 0in /  0.0mm 5 W/m2
20:48 59.4 °F /  15.2 °C 40.6 °F /  4.8 °C 29.8in /  1008.5hPa Calm   2mph /  3.2km/h 50% 0in /  0.0mm 0 W/m2
20:54 58.5 °F /  14.7 °C 40.5 °F /  4.7 °C 29.8in /  1008.5hPa SE 0.9mph /  1.4km/h 2mph /  3.2km/h 51% 0in /  0.0mm 0 W/m2
20:59 57.9 °F /  14.4 °C 40.8 °F /  4.9 °C 29.8in /  1008.5hPa Calm   2mph /  3.2km/h 53% 0in /  0.0mm 0 W/m2
21:04 57.4 °F /  14.1 °C 40.5 °F /  4.7 °C 29.8in /  1008.5hPa Calm   2mph /  3.2km/h 53% 0in /  0.0mm 0 W/m2
21:09 56.8 °F /  13.8 °C 40.5 °F /  4.7 °C 29.8in /  1008.5hPa SE 0.9mph /  1.4km/h 1mph /  1.6km/h 54% 0in /  0.0mm 0 W/m2
21:14 56.3 °F /  13.5 °C 40.3 °F /  4.6 °C 29.8in /  1008.5hPa Calm   1mph /  1.6km/h 55% 0in /  0.0mm 0 W/m2
21:19 55.9 °F /  13.3 °C 40.5 °F /  4.7 °C 29.8in /  1008.5hPa Calm   1mph /  1.6km/h 56% 0in /  0.0mm 0 W/m2
21:24 55.6 °F /  13.1 °C 40.6 °F /  4.8 °C 29.8in /  1008.5hPa SE 0.9mph /  1.4km/h 2mph /  3.2km/h 57% 0in /  0.0mm 0 W/m2
21:29 55.2 °F /  12.9 °C 40.6 °F /  4.8 °C 29.8in /  1008.5hPa Calm   2mph /  3.2km/h 58% 0in /  0.0mm 0 W/m2
21:34 54.9 °F /  12.7 °C 40.3 °F /  4.6 °C 29.8in /  1008.5hPa Calm   1mph /  1.6km/h 58% 0in /  0.0mm 0 W/m2
21:39 54.5 °F /  12.5 °C 40.5 °F /  4.7 °C 29.8in /  1008.8hPa SE 0.9mph /  1.4km/h 1mph /  1.6km/h 59% 0in /  0.0mm 0 W/m2
21:44 54.1 °F /  12.3 °C 40.6 °F /  4.8 °C 29.8in /  1008.8hPa Calm     60% 0in /  0.0mm 0 W/m2
21:49 54 °F /  12.2 °C 40.5 °F /  4.7 °C 29.8in /  1008.8hPa SE 0.9mph /  1.4km/h 2mph /  3.2km/h 60% 0in /  0.0mm 0 W/m2
21:54 53.8 °F /  12.1 °C 40.3 °F /  4.6 °C 29.8in /  1008.8hPa Calm     60% 0in /  0.0mm 0 W/m2
21:59 53.6 °F /  12 °C 40.5 °F /  4.7 °C 29.8in /  1008.8hPa Calm   1mph /  1.6km/h 61% 0in /  0.0mm 0 W/m2
22:04 53.4 °F /  11.9 °C 40.6 °F /  4.8 °C 29.8in /  1008.8hPa SE 0.9mph /  1.4km/h 1mph /  1.6km/h 62% 0in /  0.0mm 0 W/m2
22:09 53.1 °F /  11.7 °C 40.5 °F /  4.7 °C 29.8in /  1008.8hPa Calm   1mph /  1.6km/h 62% 0in /  0.0mm 0 W/m2
22:14 52.9 °F /  11.6 °C 40.6 °F /  4.8 °C 29.8in /  1008.8hPa Calm     63% 0in /  0.0mm 0 W/m2
22:19 52.5 °F /  11.4 °C 40.6 °F /  4.8 °C 29.8in /  1008.8hPa Calm     64% 0in /  0.0mm 0 W/m2
22:24 52.3 °F /  11.3 °C 41 °F /  5 °C 29.8in /  1008.8hPa Calm   1mph /  1.6km/h 65% 0in /  0.0mm 0 W/m2
22:29 52 °F /  11.1 °C 40.6 °F /  4.8 °C 29.8in /  1009.1hPa Calm     65% 0in /  0.0mm 0 W/m2
22:34 51.8 °F /  11 °C 40.8 °F /  4.9 °C 29.8in /  1009.1hPa Calm   1mph /  1.6km/h 66% 0in /  0.0mm 0 W/m2
22:39 51.6 °F /  10.9 °C 40.6 °F /  4.8 °C 29.8in /  1009.1hPa Calm     66% 0in /  0.0mm 0 W/m2
22:44 51.4 °F /  10.8 °C 40.8 °F /  4.9 °C 29.8in /  1009.1hPa Calm     67% 0in /  0.0mm 0 W/m2
22:49 51.3 °F /  10.7 °C 40.6 °F /  4.8 °C 29.8in /  1009.1hPa Calm   1mph /  1.6km/h 67% 0in /  0.0mm 0 W/m2
22:54 51.3 °F /  10.7 °C 40.6 °F /  4.8 °C 29.8in /  1009.1hPa Calm   1mph /  1.6km/h 67% 0in /  0.0mm 0 W/m2
22:59 51.3 °F /  10.7 °C 40.3 °F /  4.6 °C 29.8in /  1009.1hPa Calm   2mph /  3.2km/h 66% 0in /  0.0mm 0 W/m2
23:04 51.3 °F /  10.7 °C 40.3 °F /  4.6 °C 29.8in /  1009.1hPa South 3mph /  4.8km/h 3mph /  4.8km/h 66% 0in /  0.0mm 0 W/m2
23:09 51.3 °F /  10.7 °C 40.3 °F /  4.6 °C 29.8in /  1009.1hPa Calm     66% 0in /  0.0mm 0 W/m2
23:14 51.3 °F /  10.7 °C 40.3 °F /  4.6 °C 29.8in /  1009.5hPa South 0.9mph /  1.4km/h 3mph /  4.8km/h 66% 0in /  0.0mm 0 W/m2
23:19 51.1 °F /  10.6 °C 40.1 °F /  4.5 °C 29.8in /  1009.5hPa South 0.9mph /  1.4km/h 1mph /  1.6km/h 66% 0in /  0.0mm 0 W/m2
23:24 51.1 °F /  10.6 °C 40.1 °F /  4.5 °C 29.8in /  1009.5hPa Calm     66% 0in /  0.0mm 0 W/m2
23:29 50.9 °F /  10.5 °C 39.9 °F /  4.4 °C 29.8in /  1009.5hPa South 2mph /  3.2km/h 2mph /  3.2km/h 66% 0in /  0.0mm 0 W/m2
23:34 50.7 °F /  10.4 °C 39.7 °F /  4.3 °C 29.8in /  1009.5hPa Calm   1mph /  1.6km/h 66% 0in /  0.0mm 0 W/m2
23:39 50.9 °F /  10.5 °C 39.9 °F /  4.4 °C 29.8in /  1009.5hPa SW 0.9mph /  1.4km/h 2mph /  3.2km/h 66% 0in /  0.0mm 0 W/m2
23:44 51.3 °F /  10.7 °C 39.6 °F /  4.2 °C 29.8in /  1009.5hPa South 0.9mph /  1.4km/h 4mph /  6.4km/h 64% 0in /  0.0mm 0 W/m2
23:49 51.4 °F /  10.8 °C 39.7 °F /  4.3 °C 29.8in /  1009.5hPa Calm   1mph /  1.6km/h 64% 0in /  0.0mm 0 W/m2
23:54 51.4 °F /  10.8 °C 39.7 °F /  4.3 °C 29.8in /  1009.5hPa Calm   2mph /  3.2km/h 64% 0in /  0.0mm 0 W/m2
23:59 51.3 °F /  10.7 °C 39.6 °F /  4.2 °C 29.8in /  1009.5hPa SW 0.9mph /  1.4km/h 3mph /  4.8km/h 64% 0in /  0.0mm 0 W/m2
Juneau County Weather
Compliments of Weather Underground - 4 mb